createdAt,value
2023-01-29T00:01:33.204Z,9.90
2023-01-29T00:04:00.000Z,10.60
2023-01-29T00:06:27.011Z,8.60
2023-01-29T00:08:54.005Z,6.80
2023-01-29T00:11:20.632Z,9.60
2023-01-29T00:13:47.229Z,9.00
2023-01-29T00:16:14.926Z,7.90
2023-01-29T00:18:41.750Z,8.30
2023-01-29T00:21:16.782Z,9.70
2023-01-29T00:23:43.364Z,10.70
2023-01-29T00:26:10.271Z,7.60
2023-01-29T00:28:37.649Z,9.80
2023-01-29T00:31:18.198Z,9.30
2023-01-29T00:33:45.123Z,8.60
2023-01-29T00:36:13.399Z,8.90
2023-01-29T00:38:40.150Z,8.70
2023-01-29T00:41:29.850Z,11.00
2023-01-29T00:44:15.799Z,9.00
2023-01-29T00:46:42.617Z,9.10
2023-01-29T00:49:09.796Z,8.20
2023-01-29T00:51:36.897Z,9.30
2023-01-29T00:54:06.253Z,11.00
2023-01-29T00:56:35.373Z,11.80
2023-01-29T00:59:03.124Z,9.00
2023-01-29T01:01:48.919Z,8.30
2023-01-29T01:04:15.686Z,10.60
2023-01-29T01:06:42.271Z,14.10
2023-01-29T01:09:28.067Z,10.30
2023-01-29T01:11:55.105Z,9.30
2023-01-29T01:14:21.757Z,11.60
2023-01-29T01:16:48.569Z,8.40
2023-01-29T01:19:15.826Z,11.40
2023-01-29T01:21:47.692Z,7.30
2023-01-29T01:24:14.328Z,9.60
2023-01-29T01:26:41.082Z,8.30
2023-01-29T01:29:08.530Z,9.20
2023-01-29T01:31:35.178Z,9.20
2023-01-29T01:34:01.665Z,9.60
2023-01-29T01:36:28.327Z,11.00
2023-01-29T01:38:54.968Z,8.30
2023-01-29T01:41:22.523Z,9.40
2023-01-29T01:44:01.181Z,8.70
2023-01-29T01:46:33.439Z,10.70
2023-01-29T01:49:17.645Z,9.40
2023-01-29T01:51:53.253Z,9.50
2023-01-29T01:54:28.899Z,11.70
2023-01-29T01:57:08.590Z,11.30
2023-01-29T01:59:36.590Z,9.90
2023-01-29T02:02:22.003Z,8.10
2023-01-29T02:05:07.263Z,10.50
2023-01-29T02:07:52.760Z,9.30
2023-01-29T02:10:19.892Z,10.30
2023-01-29T02:12:46.489Z,10.90
2023-01-29T02:15:15.981Z,12.20
2023-01-29T02:17:47.563Z,11.70
2023-01-29T02:20:34.106Z,11.20
2023-01-29T02:23:22.724Z,11.10
2023-01-29T02:26:37.922Z,10.90
2023-01-29T02:29:40.560Z,12.10
2023-01-29T02:32:31.478Z,10.10
2023-01-29T02:35:30.050Z,10.10
2023-01-29T02:38:29.336Z,12.00
2023-01-29T02:41:13.494Z,12.20
2023-01-29T02:43:59.593Z,10.40
2023-01-29T02:46:47.673Z,10.80
2023-01-29T02:49:24.698Z,12.60
2023-01-29T02:52:08.997Z,12.70
2023-01-29T02:54:46.475Z,12.90
2023-01-29T02:57:23.592Z,12.70
2023-01-29T02:59:58.702Z,17.10
2023-01-29T03:02:53.073Z,19.60
2023-01-29T03:05:28.696Z,17.40
2023-01-29T03:08:02.224Z,14.90
2023-01-29T03:10:55.518Z,13.50
2023-01-29T03:13:42.194Z,13.30
2023-01-29T03:16:18.629Z,12.90
2023-01-29T03:18:54.479Z,12.90
2023-01-29T03:21:46.885Z,12.50
2023-01-29T03:24:33.473Z,11.10
2023-01-29T03:27:21.132Z,11.90
2023-01-29T03:30:07.656Z,13.90
2023-01-29T03:32:47.104Z,12.60
2023-01-29T03:35:13.983Z,12.50
2023-01-29T03:37:43.956Z,10.90
2023-01-29T03:40:11.617Z,13.00
2023-01-29T03:42:49.306Z,12.60
2023-01-29T03:45:25.724Z,11.10
2023-01-29T03:48:23.560Z,13.00
2023-01-29T03:51:00.796Z,10.90
2023-01-29T03:53:51.483Z,13.80
2023-01-29T03:56:39.039Z,11.30
2023-01-29T03:59:18.879Z,11.90
2023-01-29T04:02:27.025Z,9.60
2023-01-29T04:05:03.726Z,10.70
2023-01-29T04:07:32.815Z,12.50
2023-01-29T04:10:16.607Z,9.00
2023-01-29T04:12:48.847Z,9.50
2023-01-29T04:15:15.710Z,10.10
2023-01-29T04:17:49.570Z,10.20
2023-01-29T04:20:22.483Z,12.40
2023-01-29T04:22:51.008Z,11.50
2023-01-29T04:25:26.059Z,13.40
2023-01-29T04:28:15.920Z,11.60
2023-01-29T04:30:58.098Z,12.70
2023-01-29T04:33:43.842Z,11.50
2023-01-29T04:36:29.967Z,11.80
2023-01-29T04:39:22.333Z,9.20
2023-01-29T04:42:02.288Z,8.40
2023-01-29T04:44:53.449Z,10.10
2023-01-29T04:48:01.754Z,10.80
2023-01-29T04:50:37.780Z,9.80
2023-01-29T04:53:18.138Z,11.40
2023-01-29T04:56:20.520Z,7.90
2023-01-29T04:58:52.330Z,13.40
2023-01-29T05:01:18.965Z,12.60
2023-01-29T05:03:49.630Z,13.20
2023-01-29T05:06:16.424Z,11.20
2023-01-29T05:08:42.838Z,14.30
2023-01-29T05:11:09.285Z,12.10
2023-01-29T05:13:39.518Z,13.00
2023-01-29T05:16:15.817Z,12.60
2023-01-29T05:18:43.055Z,12.70
2023-01-29T05:21:09.441Z,12.90
2023-01-29T05:23:36.461Z,15.00
2023-01-29T05:26:03.266Z,13.50
2023-01-29T05:28:30.038Z,12.90
2023-01-29T05:30:56.883Z,11.90
2023-01-29T05:33:29.343Z,14.40
2023-01-29T05:35:58.282Z,16.90
2023-01-29T05:38:24.733Z,15.50
2023-01-29T05:40:51.468Z,13.50
2023-01-29T05:43:20.531Z,14.50
2023-01-29T05:45:58.611Z,14.50
2023-01-29T05:48:28.928Z,12.90
2023-01-29T05:51:03.100Z,14.50
2023-01-29T05:53:29.989Z,14.80
2023-01-29T05:55:56.821Z,13.30
2023-01-29T05:58:23.183Z,16.30
2023-01-29T06:00:49.933Z,14.80
2023-01-29T06:03:16.382Z,13.80
2023-01-29T06:05:42.841Z,16.40
2023-01-29T06:08:09.466Z,16.80
2023-01-29T06:10:35.933Z,14.20
2023-01-29T06:13:02.731Z,15.90
2023-01-29T06:15:29.358Z,15.60
2023-01-29T06:17:56.244Z,15.70
2023-01-29T06:20:23.780Z,13.90
2023-01-29T06:22:50.273Z,14.60
2023-01-29T06:25:16.888Z,16.10
2023-01-29T06:27:43.606Z,18.20
2023-01-29T06:30:11.301Z,17.90
2023-01-29T06:32:37.834Z,15.20
2023-01-29T06:35:05.515Z,16.70
2023-01-29T06:37:32.009Z,17.40
2023-01-29T06:39:58.682Z,16.00
2023-01-29T06:42:27.258Z,15.00
2023-01-29T06:44:56.710Z,14.60
2023-01-29T06:47:24.124Z,15.50
2023-01-29T06:49:50.736Z,16.90
2023-01-29T06:52:17.217Z,15.70
2023-01-29T06:54:43.699Z,16.80
2023-01-29T06:57:10.427Z,14.00
2023-01-29T06:59:37.100Z,14.20
2023-01-29T07:02:03.935Z,17.20
2023-01-29T07:04:30.512Z,14.50
2023-01-29T07:06:59.358Z,13.00
2023-01-29T07:09:25.970Z,16.60
2023-01-29T07:11:52.559Z,19.20
2023-01-29T07:14:19.250Z,13.50
2023-01-29T07:16:45.889Z,18.30
2023-01-29T07:19:13.024Z,13.90
2023-01-29T07:21:39.572Z,17.50
2023-01-29T07:24:06.557Z,16.80
2023-01-29T07:26:33.133Z,14.80
2023-01-29T07:28:59.649Z,13.80
2023-01-29T07:31:26.485Z,16.10
2023-01-29T07:33:53.376Z,14.80
2023-01-29T07:36:20.063Z,13.80
2023-01-29T07:38:50.538Z,12.80
2023-01-29T07:41:17.058Z,13.70
2023-01-29T07:43:44.949Z,13.60
2023-01-29T07:46:11.443Z,14.70
2023-01-29T07:48:38.121Z,17.60
2023-01-29T07:51:05.111Z,14.30
2023-01-29T07:53:32.153Z,13.00
2023-01-29T07:55:58.938Z,13.30
2023-01-29T07:58:25.883Z,14.20
2023-01-29T08:00:52.685Z,12.90
2023-01-29T08:03:20.303Z,15.20
2023-01-29T08:05:46.962Z,13.90
2023-01-29T08:08:13.798Z,13.70
2023-01-29T08:10:40.224Z,13.00
2023-01-29T08:13:07.170Z,11.80
2023-01-29T08:15:33.887Z,13.40
2023-01-29T08:18:01.831Z,11.40
2023-01-29T08:20:28.437Z,12.90
2023-01-29T08:23:02.261Z,10.50
2023-01-29T08:25:29.268Z,14.40
2023-01-29T08:27:57.190Z,11.90
2023-01-29T08:30:26.197Z,10.50
2023-01-29T08:32:52.766Z,12.70
2023-01-29T08:35:19.678Z,11.10
2023-01-29T08:37:58.759Z,13.50
2023-01-29T08:40:31.070Z,12.90
2023-01-29T08:43:03.096Z,10.20
2023-01-29T08:45:32.752Z,11.40
2023-01-29T08:47:59.381Z,11.90
2023-01-29T08:50:26.316Z,12.10
2023-01-29T08:52:58.421Z,7.90
2023-01-29T08:55:26.152Z,13.80
2023-01-29T08:57:52.953Z,12.00
2023-01-29T09:00:20.670Z,12.10
2023-01-29T09:02:47.240Z,10.20
2023-01-29T09:05:14.127Z,13.10
2023-01-29T09:07:40.969Z,12.50
2023-01-29T09:10:08.688Z,12.10
2023-01-29T09:12:35.312Z,13.80
2023-01-29T09:15:02.019Z,11.50
2023-01-29T09:17:28.674Z,12.60
2023-01-29T09:19:55.316Z,9.90
2023-01-29T09:22:21.761Z,16.20
2023-01-29T09:24:48.255Z,12.40
2023-01-29T09:27:14.664Z,13.30
2023-01-29T09:29:41.091Z,12.90
2023-01-29T09:32:07.653Z,13.10
2023-01-29T09:34:34.747Z,13.90
2023-01-29T09:37:01.220Z,14.10
2023-01-29T09:39:28.075Z,11.70
2023-01-29T09:42:18.254Z,12.10
2023-01-29T09:45:20.555Z,14.60
2023-01-29T09:47:48.208Z,13.20
2023-01-29T09:50:39.467Z,9.70
2023-01-29T09:53:43.056Z,14.10
2023-01-29T09:56:19.431Z,12.90
2023-01-29T09:58:45.909Z,12.70
2023-01-29T10:01:24.007Z,14.10
2023-01-29T10:04:22.975Z,13.20
2023-01-29T10:07:26.058Z,12.50
2023-01-29T10:10:28.890Z,14.60
2023-01-29T10:13:14.678Z,15.90
2023-01-29T10:15:57.991Z,14.30
2023-01-29T10:18:46.516Z,12.70
2023-01-29T10:22:09.753Z,13.50
2023-01-29T10:24:45.459Z,13.60
2023-01-29T10:27:16.475Z,12.80
2023-01-29T10:29:44.506Z,14.20
2023-01-29T10:32:17.416Z,12.80
2023-01-29T10:35:00.381Z,14.40
2023-01-29T10:37:37.459Z,12.90
2023-01-29T10:40:21.513Z,13.10
2023-01-29T10:43:11.491Z,13.10
2023-01-29T10:45:52.403Z,15.00
2023-01-29T10:48:46.795Z,12.00
2023-01-29T10:51:50.313Z,16.00
2023-01-29T10:54:35.631Z,14.20
2023-01-29T10:57:20.613Z,12.10
2023-01-29T11:00:17.791Z,10.90
2023-01-29T11:02:45.902Z,13.30
2023-01-29T11:05:34.728Z,10.80
2023-01-29T11:08:06.595Z,12.90
2023-01-29T11:10:41.637Z,15.00
2023-01-29T11:13:08.417Z,14.90
2023-01-29T11:15:34.790Z,15.20
2023-01-29T11:18:15.560Z,13.80
2023-01-29T11:20:43.987Z,10.70
2023-01-29T11:23:32.356Z,11.30
2023-01-29T11:25:59.844Z,14.30
2023-01-29T11:28:36.488Z,15.60
2023-01-29T11:31:03.676Z,15.90
2023-01-29T11:33:30.422Z,15.60
2023-01-29T11:35:58.509Z,15.50
2023-01-29T11:38:27.046Z,16.20
2023-01-29T11:41:05.889Z,17.80
2023-01-29T11:43:33.132Z,20.70
2023-01-29T11:46:19.962Z,15.70
2023-01-29T11:48:50.727Z,17.60
2023-01-29T11:51:28.303Z,17.50
2023-01-29T11:53:57.263Z,15.60
2023-01-29T11:56:39.161Z,13.50
2023-01-29T11:59:07.789Z,12.80
2023-01-29T12:01:37.724Z,16.30
2023-01-29T12:04:22.147Z,15.50
2023-01-29T12:06:52.021Z,16.10
2023-01-29T12:09:23.849Z,17.10
2023-01-29T12:11:51.999Z,16.70
2023-01-29T12:14:29.291Z,13.50
2023-01-29T12:17:16.667Z,15.90
2023-01-29T12:19:50.839Z,14.70
2023-01-29T12:22:24.655Z,16.20
2023-01-29T12:25:04.653Z,14.90
2023-01-29T12:27:36.966Z,14.30
2023-01-29T12:30:05.979Z,14.90
2023-01-29T12:32:47.946Z,17.00
2023-01-29T12:35:25.614Z,15.50
2023-01-29T12:38:15.517Z,20.70
2023-01-29T12:40:55.073Z,15.20
2023-01-29T12:43:43.104Z,14.70
2023-01-29T12:46:19.659Z,18.80
2023-01-29T12:48:46.108Z,16.20
2023-01-29T12:51:19.492Z,16.30
2023-01-29T12:53:52.246Z,14.00
2023-01-29T12:56:28.511Z,13.30
2023-01-29T12:58:55.538Z,12.90
2023-01-29T13:01:33.618Z,18.10
2023-01-29T13:04:08.260Z,14.50
2023-01-29T13:06:48.996Z,15.80
2023-01-29T13:09:20.217Z,15.90
2023-01-29T13:11:55.116Z,15.20
2023-01-29T13:14:45.141Z,15.00
2023-01-29T13:17:32.287Z,17.80
2023-01-29T13:20:03.707Z,17.50
2023-01-29T13:22:36.288Z,14.90
2023-01-29T13:25:05.669Z,13.80
2023-01-29T13:27:33.955Z,13.90
2023-01-29T13:30:00.980Z,18.60
2023-01-29T13:32:30.341Z,16.90
2023-01-29T13:35:06.276Z,15.40
2023-01-29T13:37:34.749Z,16.40
2023-01-29T13:40:03.437Z,16.60
2023-01-29T13:42:39.318Z,17.80
2023-01-29T13:45:07.768Z,15.40
2023-01-29T13:47:38.565Z,15.80
2023-01-29T13:50:29.201Z,15.60
2023-01-29T13:53:01.505Z,15.30
2023-01-29T13:55:34.618Z,14.30
2023-01-29T13:58:22.377Z,14.20
2023-01-29T14:00:49.976Z,14.20
2023-01-29T14:03:16.783Z,17.00
2023-01-29T14:05:45.582Z,17.00
2023-01-29T14:08:12.165Z,19.90
2023-01-29T14:10:38.737Z,15.60
2023-01-29T14:13:17.475Z,16.10
2023-01-29T14:15:56.389Z,17.00
2023-01-29T14:18:27.137Z,23.50
2023-01-29T14:21:16.378Z,19.20
2023-01-29T14:23:45.976Z,14.70
2023-01-29T14:26:55.925Z,15.20
2023-01-29T14:29:35.356Z,14.50
2023-01-29T14:32:19.012Z,16.80
2023-01-29T14:35:20.195Z,14.40
2023-01-29T14:37:48.834Z,16.10
2023-01-29T14:40:23.597Z,18.60
2023-01-29T14:43:06.329Z,17.90
2023-01-29T14:45:37.335Z,16.70
2023-01-29T14:48:09.961Z,17.50
2023-01-29T14:50:36.378Z,18.60
2023-01-29T14:53:42.205Z,14.90
2023-01-29T14:56:36.946Z,17.80
2023-01-29T14:59:28.553Z,16.50
2023-01-29T15:01:57.247Z,15.90
2023-01-29T15:04:34.489Z,16.30
2023-01-29T15:07:35.067Z,16.40
2023-01-29T15:10:22.644Z,16.00
2023-01-29T15:12:56.147Z,18.10
2023-01-29T15:15:37.357Z,16.10
2023-01-29T15:18:12.910Z,21.30
2023-01-29T15:20:40.904Z,19.00
2023-01-29T15:23:37.500Z,17.60
2023-01-29T15:26:27.243Z,17.70
2023-01-29T15:29:03.634Z,20.90
2023-01-29T15:31:31.417Z,19.10
2023-01-29T15:34:05.487Z,19.90
2023-01-29T15:36:32.699Z,17.00
2023-01-29T15:39:14.494Z,19.00
2023-01-29T15:41:42.046Z,18.20
2023-01-29T15:44:20.965Z,14.60
2023-01-29T15:46:56.420Z,17.80
2023-01-29T15:49:34.677Z,21.20
2023-01-29T15:52:15.080Z,19.50
2023-01-29T15:54:41.583Z,16.10
2023-01-29T15:57:20.164Z,21.40
2023-01-29T15:59:51.078Z,20.50
2023-01-29T16:02:34.869Z,18.70
2023-01-29T16:05:02.113Z,18.20
2023-01-29T16:07:28.956Z,15.80
2023-01-29T16:09:55.698Z,18.00
2023-01-29T16:12:22.413Z,16.60
2023-01-29T16:14:49.248Z,18.80
2023-01-29T16:17:34.899Z,19.00
2023-01-29T16:20:05.452Z,14.80
2023-01-29T16:22:36.256Z,17.10
2023-01-29T16:25:10.410Z,19.10
2023-01-29T16:27:36.851Z,19.70
2023-01-29T16:30:07.631Z,19.00
2023-01-29T16:32:34.248Z,20.40
2023-01-29T16:35:00.891Z,19.90
2023-01-29T16:37:35.639Z,19.50
2023-01-29T16:40:20.957Z,20.70
2023-01-29T16:42:47.423Z,15.10
2023-01-29T16:45:28.119Z,21.00
2023-01-29T16:48:19.697Z,20.30
2023-01-29T16:50:54.887Z,21.30
2023-01-29T16:53:24.651Z,23.90
2023-01-29T16:55:51.409Z,22.80
2023-01-29T16:58:24.410Z,21.30
2023-01-29T17:01:00.492Z,22.00
2023-01-29T17:03:27.824Z,24.10
2023-01-29T17:05:54.423Z,27.00
2023-01-29T17:08:27.126Z,25.40
2023-01-29T17:10:53.793Z,25.30
2023-01-29T17:13:29.538Z,26.50
2023-01-29T17:16:04.275Z,21.90
2023-01-29T17:18:30.951Z,19.80
2023-01-29T17:20:57.706Z,21.70
2023-01-29T17:23:24.273Z,21.40
2023-01-29T17:25:51.275Z,20.30
2023-01-29T17:28:17.868Z,22.60
2023-01-29T17:30:50.603Z,21.50
2023-01-29T17:33:25.321Z,20.70
2023-01-29T17:35:52.453Z,20.10
2023-01-29T17:38:26.054Z,24.80
2023-01-29T17:40:59.838Z,22.80
2023-01-29T17:43:26.817Z,24.80
2023-01-29T17:45:53.522Z,23.80
2023-01-29T17:48:26.534Z,23.40
2023-01-29T17:51:02.353Z,22.00
2023-01-29T17:53:44.241Z,26.70
2023-01-29T17:56:17.211Z,25.80
2023-01-29T17:58:43.888Z,25.30
2023-01-29T18:01:10.588Z,29.30
2023-01-29T18:03:37.205Z,29.60
2023-01-29T18:06:07.262Z,26.80
2023-01-29T18:08:35.516Z,24.10
2023-01-29T18:11:02.137Z,26.90
2023-01-29T18:13:28.678Z,25.10
2023-01-29T18:15:55.439Z,25.70
2023-01-29T18:18:23.135Z,28.10
2023-01-29T18:20:50.197Z,24.50
2023-01-29T18:23:16.844Z,26.50
2023-01-29T18:25:44.295Z,25.50
2023-01-29T18:28:18.659Z,25.80
2023-01-29T18:30:46.411Z,29.20
2023-01-29T18:33:13.844Z,27.40
2023-01-29T18:35:40.629Z,23.80
2023-01-29T18:38:07.023Z,25.60
2023-01-29T18:40:33.769Z,27.30
2023-01-29T18:43:00.415Z,24.00
2023-01-29T18:45:27.965Z,24.50
2023-01-29T18:47:54.809Z,26.30
2023-01-29T18:50:25.532Z,24.00
2023-01-29T18:52:53.083Z,23.70
2023-01-29T18:55:20.724Z,25.30
2023-01-29T18:58:28.001Z,23.50
2023-01-29T19:00:34.107Z,21.30
2023-01-29T19:03:00.611Z,30.30
2023-01-29T19:05:27.451Z,25.20
2023-01-29T19:07:54.125Z,27.70
2023-01-29T19:10:20.713Z,25.90
2023-01-29T19:12:47.802Z,22.10
2023-01-29T19:15:15.821Z,24.40
2023-01-29T19:17:42.668Z,26.70
2023-01-29T19:20:10.390Z,29.50
2023-01-29T19:22:37.145Z,29.30
2023-01-29T19:25:04.530Z,28.00
2023-01-29T19:27:31.077Z,28.80
2023-01-29T19:29:58.807Z,26.90
2023-01-29T19:32:26.192Z,21.50
2023-01-29T19:34:52.702Z,25.80
2023-01-29T19:37:19.444Z,25.30
2023-01-29T19:39:46.074Z,23.80
2023-01-29T19:42:12.767Z,23.10
2023-01-29T19:44:39.277Z,20.80
2023-01-29T19:47:05.757Z,21.40
2023-01-29T19:49:33.428Z,22.50
2023-01-29T19:52:00.891Z,21.30
2023-01-29T19:54:28.775Z,22.50
2023-01-29T19:56:55.406Z,24.00
2023-01-29T19:59:21.895Z,22.20
2023-01-29T20:01:48.477Z,19.70
2023-01-29T20:04:15.060Z,22.70
2023-01-29T20:06:41.551Z,21.50
2023-01-29T20:09:08.041Z,21.20
2023-01-29T20:11:34.614Z,20.20
2023-01-29T20:14:01.103Z,19.50
2023-01-29T20:16:27.712Z,20.20
2023-01-29T20:18:54.275Z,21.60
2023-01-29T20:21:21.393Z,21.10
2023-01-29T20:23:49.281Z,21.80
2023-01-29T20:26:16.115Z,24.80
2023-01-29T20:28:42.651Z,17.50
2023-01-29T20:31:09.393Z,23.20
2023-01-29T20:33:38.767Z,21.60
2023-01-29T20:36:07.709Z,21.00
2023-01-29T20:38:34.354Z,20.70
2023-01-29T20:41:09.795Z,23.30
2023-01-29T20:43:36.340Z,22.50
2023-01-29T20:46:03.234Z,19.90
2023-01-29T20:48:30.396Z,21.90
2023-01-29T20:51:03.129Z,21.00
2023-01-29T20:53:29.482Z,20.70
2023-01-29T20:55:56.004Z,24.70
2023-01-29T20:58:22.905Z,22.60
2023-01-29T21:00:49.444Z,25.40
2023-01-29T21:03:15.984Z,24.40
2023-01-29T21:05:42.534Z,24.10
2023-01-29T21:08:09.131Z,24.90
2023-01-29T21:10:35.725Z,27.40
2023-01-29T21:13:02.179Z,26.60
2023-01-29T21:15:28.919Z,26.90
2023-01-29T21:17:56.343Z,29.20
2023-01-29T21:20:22.879Z,28.30
2023-01-29T21:22:49.406Z,29.70
2023-01-29T21:25:19.444Z,28.60
2023-01-29T21:27:46.229Z,28.90
2023-01-29T21:30:13.003Z,26.30
2023-01-29T21:32:39.511Z,26.00
2023-01-29T21:35:07.502Z,28.70
2023-01-29T21:37:37.251Z,25.60
2023-01-29T21:40:05.421Z,32.40
2023-01-29T21:42:50.422Z,33.40
2023-01-29T21:45:17.132Z,28.40
2023-01-29T21:47:43.566Z,30.50
2023-01-29T21:50:10.457Z,26.10
2023-01-29T21:52:37.441Z,28.50
2023-01-29T21:55:04.536Z,27.00
2023-01-29T21:57:31.196Z,27.70
2023-01-29T21:59:58.696Z,24.30
2023-01-29T22:02:31.387Z,30.30
2023-01-29T22:05:16.456Z,27.70
2023-01-29T22:07:45.142Z,28.60
2023-01-29T22:10:11.837Z,28.10
2023-01-29T22:12:39.285Z,27.70
2023-01-29T22:15:07.199Z,30.30
2023-01-29T22:17:34.529Z,28.00
2023-01-29T22:20:01.055Z,28.90
2023-01-29T22:22:27.655Z,26.70
2023-01-29T22:24:55.785Z,29.50
2023-01-29T22:27:22.677Z,27.40
2023-01-29T22:29:49.062Z,30.20
2023-01-29T22:32:15.751Z,28.10
2023-01-29T22:34:42.289Z,24.90
2023-01-29T22:37:08.870Z,25.40
2023-01-29T22:39:35.360Z,23.20
2023-01-29T22:42:01.794Z,23.50
2023-01-29T22:44:28.363Z,24.40
2023-01-29T22:46:55.037Z,26.70
2023-01-29T22:49:22.484Z,23.90
2023-01-29T22:52:08.964Z,24.40
2023-01-29T22:54:40.463Z,23.90
2023-01-29T22:57:09.362Z,25.40
2023-01-29T22:59:35.856Z,22.90
2023-01-29T23:02:02.405Z,25.80
2023-01-29T23:04:28.754Z,24.60
2023-01-29T23:06:55.365Z,25.90
2023-01-29T23:09:21.961Z,26.40
2023-01-29T23:11:48.417Z,24.20
2023-01-29T23:14:14.859Z,24.60
2023-01-29T23:16:41.464Z,26.70
2023-01-29T23:19:09.833Z,26.90
2023-01-29T23:21:36.359Z,28.40
2023-01-29T23:24:03.564Z,25.50
2023-01-29T23:26:48.680Z,23.60
2023-01-29T23:29:15.306Z,23.20
2023-01-29T23:31:41.899Z,26.90
2023-01-29T23:34:08.626Z,27.00
2023-01-29T23:36:35.052Z,23.40
2023-01-29T23:39:01.419Z,26.00
2023-01-29T23:41:27.959Z,26.40
2023-01-29T23:43:54.332Z,25.50
2023-01-29T23:46:20.913Z,18.90
2023-01-29T23:48:47.319Z,25.50
2023-01-29T23:51:13.842Z,27.50
2023-01-29T23:53:40.614Z,25.10
2023-01-29T23:56:07.191Z,24.40
2023-01-29T23:58:33.739Z,24.30
